createdAt,value
2023-04-02T00:01:39.260Z,16.13
2023-04-02T00:04:16.385Z,16.60
2023-04-02T00:06:47.577Z,15.10
2023-04-02T00:09:25.577Z,15.00
2023-04-02T00:11:55.773Z,17.67
2023-04-02T00:14:27.201Z,17.03
2023-04-02T00:16:59.306Z,17.13
2023-04-02T00:19:34.605Z,17.53
2023-04-02T00:22:03.971Z,16.93
2023-04-02T00:24:33.807Z,17.27
2023-04-02T00:27:02.321Z,16.30
2023-04-02T00:29:30.547Z,15.63
2023-04-02T00:32:01.149Z,16.03
2023-04-02T00:34:33.826Z,16.23
2023-04-02T00:37:02.845Z,14.57
2023-04-02T00:39:33.873Z,15.80
2023-04-02T00:42:05.858Z,15.13
2023-04-02T00:44:37.976Z,14.67
2023-04-02T00:47:14.983Z,15.97
2023-04-02T00:49:44.206Z,15.00
2023-04-02T00:52:15.333Z,14.23
2023-04-02T00:54:46.944Z,13.87
2023-04-02T00:57:18.889Z,14.67
2023-04-02T00:59:56.088Z,13.53
2023-04-02T01:02:29.517Z,14.57
2023-04-02T01:05:00.362Z,13.83
2023-04-02T01:08:01.576Z,15.57
2023-04-02T01:10:44.741Z,15.83
2023-04-02T01:13:25.054Z,15.97
2023-04-02T01:16:02.032Z,15.00
2023-04-02T01:18:50.378Z,14.33
2023-04-02T01:21:38.119Z,13.63
2023-04-02T01:24:08.754Z,14.20
2023-04-02T01:26:46.768Z,13.87
2023-04-02T01:29:19.805Z,12.87
2023-04-02T01:31:50.174Z,13.80
2023-04-02T01:34:23.792Z,14.53
2023-04-02T01:37:07.433Z,13.93
2023-04-02T01:39:46.215Z,13.00
2023-04-02T01:42:21.797Z,12.80
2023-04-02T01:44:53.096Z,13.87
2023-04-02T01:47:27.412Z,13.57
2023-04-02T01:50:03.301Z,13.23
2023-04-02T01:52:38.022Z,14.97
2023-04-02T01:55:08.584Z,14.80
2023-04-02T01:57:37.646Z,13.63
2023-04-02T02:00:12.514Z,13.13
2023-04-02T02:02:42.695Z,13.47
2023-04-02T02:05:14.673Z,13.90
2023-04-02T02:07:46.581Z,14.23
2023-04-02T02:10:19.879Z,12.50
2023-04-02T02:12:48.805Z,12.20
2023-04-02T02:15:21.232Z,13.53
2023-04-02T02:17:50.325Z,13.57
2023-04-02T02:20:19.744Z,13.47
2023-04-02T02:22:50.098Z,13.00
2023-04-02T02:25:21.241Z,14.37
2023-04-02T02:28:09.188Z,13.47
2023-04-02T02:30:43.227Z,14.43
2023-04-02T02:33:19.077Z,14.33
2023-04-02T02:35:53.893Z,13.83
2023-04-02T02:38:49.957Z,14.77
2023-04-02T02:41:30.691Z,14.37
2023-04-02T02:44:03.998Z,15.97
2023-04-02T02:46:35.978Z,13.63
2023-04-02T02:49:10.868Z,14.73
2023-04-02T02:51:45.150Z,13.93
2023-04-02T02:54:20.334Z,15.07
2023-04-02T02:56:54.240Z,15.47
2023-04-02T02:59:23.879Z,14.23
2023-04-02T03:01:54.581Z,16.53
2023-04-02T03:04:25.053Z,17.03
2023-04-02T03:06:58.984Z,16.03
2023-04-02T03:09:38.134Z,15.50
2023-04-02T03:12:17.414Z,15.77
2023-04-02T03:14:49.866Z,16.53
2023-04-02T03:17:24.339Z,16.70
2023-04-02T03:19:58.168Z,16.07
2023-04-02T03:22:35.395Z,16.27
2023-04-02T03:25:09.898Z,17.57
2023-04-02T03:27:43.294Z,17.43
2023-04-02T03:30:27.959Z,16.33
2023-04-02T03:33:04.517Z,16.97
2023-04-02T03:35:38.383Z,17.90
2023-04-02T03:38:13.584Z,18.57
2023-04-02T03:40:50.379Z,18.83
2023-04-02T03:43:23.072Z,19.20
2023-04-02T03:45:55.406Z,18.33
2023-04-02T03:48:31.273Z,17.93
2023-04-02T03:51:03.971Z,17.80
2023-04-02T03:53:33.121Z,17.47
2023-04-02T03:56:04.164Z,17.93
2023-04-02T03:58:39.354Z,18.93
2023-04-02T04:01:14.349Z,18.90
2023-04-02T04:03:47.179Z,18.90
2023-04-02T04:06:22.118Z,18.73
2023-04-02T04:08:54.783Z,17.50
2023-04-02T04:11:28.275Z,17.40
2023-04-02T04:14:02.039Z,18.30
2023-04-02T04:16:36.184Z,17.43
2023-04-02T04:19:12.455Z,18.97
2023-04-02T04:21:45.197Z,16.97
2023-04-02T04:24:25.885Z,18.33
2023-04-02T04:27:09.585Z,17.07
2023-04-02T04:29:49.015Z,17.40
2023-04-02T04:32:27.540Z,17.20
2023-04-02T04:35:08.016Z,20.47
2023-04-02T04:37:42.713Z,18.80
2023-04-02T04:40:19.952Z,19.77
2023-04-02T04:42:51.526Z,19.03
2023-04-02T04:45:36.117Z,20.30
2023-04-02T04:48:08.218Z,19.07
2023-04-02T04:50:42.283Z,19.37
2023-04-02T04:53:17.635Z,21.17
2023-04-02T04:55:48.144Z,21.10
2023-04-02T04:58:24.151Z,19.80
2023-04-02T05:01:01.722Z,19.50
2023-04-02T05:03:35.057Z,20.30
2023-04-02T05:06:13.639Z,19.00
2023-04-02T05:08:47.839Z,19.73
2023-04-02T05:11:24.749Z,20.03
2023-04-02T05:13:56.896Z,20.20
2023-04-02T05:16:29.942Z,19.33
2023-04-02T05:19:07.573Z,18.23
2023-04-02T05:21:44.991Z,18.43
2023-04-02T05:24:46.616Z,19.23
2023-04-02T05:27:26.072Z,18.10
2023-04-02T05:30:00.336Z,20.33
2023-04-02T05:32:34.422Z,19.73
2023-04-02T05:35:07.289Z,19.53
2023-04-02T05:37:41.221Z,19.30
2023-04-02T05:40:16.379Z,18.67
2023-04-02T05:42:52.811Z,18.33
2023-04-02T05:45:28.137Z,16.13
2023-04-02T05:48:01.965Z,17.97
2023-04-02T05:50:40.050Z,18.07
2023-04-02T05:53:20.887Z,18.57
2023-04-02T05:55:56.037Z,16.60
2023-04-02T05:58:36.629Z,17.17
2023-04-02T06:01:45.569Z,16.47
2023-04-02T06:04:30.000Z,17.60
2023-04-02T06:07:02.647Z,16.93
2023-04-02T06:09:38.889Z,18.57
2023-04-02T06:12:23.210Z,17.40
2023-04-02T06:14:51.528Z,17.33
2023-04-02T06:17:22.241Z,17.63
2023-04-02T06:19:52.488Z,16.23
2023-04-02T06:22:25.870Z,16.40
2023-04-02T06:25:04.877Z,17.23
2023-04-02T06:27:42.036Z,17.13
2023-04-02T06:30:19.572Z,16.87
2023-04-02T06:32:50.903Z,16.53
2023-04-02T06:35:20.886Z,17.60
2023-04-02T06:38:00.491Z,17.30
2023-04-02T06:40:42.007Z,18.97
2023-04-02T06:43:22.216Z,19.43
2023-04-02T06:46:10.495Z,17.77
2023-04-02T06:48:54.387Z,17.87
2023-04-02T06:51:26.291Z,18.17
2023-04-02T06:53:55.283Z,16.07
2023-04-02T06:56:37.250Z,15.33
2023-04-02T06:59:07.535Z,15.10
2023-04-02T07:01:40.164Z,14.83
2023-04-02T07:04:09.811Z,12.97
2023-04-02T07:06:42.242Z,13.57
2023-04-02T07:09:11.958Z,13.23
2023-04-02T07:11:46.065Z,14.37
2023-04-02T07:14:15.238Z,14.43
2023-04-02T07:16:44.536Z,15.07
2023-04-02T07:19:19.289Z,14.40
2023-04-02T07:21:48.946Z,14.13
2023-04-02T07:24:18.015Z,14.53
2023-04-02T07:26:48.264Z,14.53
2023-04-02T07:29:17.886Z,14.13
2023-04-02T07:31:46.213Z,15.03
2023-04-02T07:34:14.481Z,14.07
2023-04-02T07:36:42.714Z,14.53
2023-04-02T07:39:11.178Z,13.53
2023-04-02T07:41:54.271Z,12.37
2023-04-02T07:44:22.679Z,12.90
2023-04-02T07:46:51.240Z,12.00
2023-04-02T07:49:19.564Z,10.90
2023-04-02T07:51:47.850Z,11.17
2023-04-02T07:54:16.053Z,11.43
2023-04-02T07:56:44.402Z,11.33
2023-04-02T07:59:14.058Z,12.97
2023-04-02T08:01:42.950Z,11.50
2023-04-02T08:04:19.533Z,12.53
2023-04-02T08:06:48.739Z,13.23
2023-04-02T08:09:17.614Z,12.13
2023-04-02T08:11:46.723Z,12.57
2023-04-02T08:14:16.667Z,12.60
2023-04-02T08:16:47.024Z,12.70
2023-04-02T08:19:15.549Z,13.10
2023-04-02T08:21:43.801Z,13.57
2023-04-02T08:24:12.042Z,11.83
2023-04-02T08:26:40.266Z,11.87
2023-04-02T08:29:08.540Z,12.17
2023-04-02T08:31:38.393Z,12.13
2023-04-02T08:34:06.844Z,13.00
2023-04-02T08:36:37.669Z,11.37
2023-04-02T08:39:06.572Z,11.97
2023-04-02T08:41:39.213Z,12.90
2023-04-02T08:44:38.517Z,12.30
2023-04-02T08:47:10.836Z,12.47
2023-04-02T08:49:49.829Z,12.43
2023-04-02T08:52:24.598Z,13.10
2023-04-02T08:54:53.507Z,14.80
2023-04-02T08:57:28.614Z,13.23
2023-04-02T09:00:00.914Z,13.43
2023-04-02T09:02:38.968Z,12.63
2023-04-02T09:05:16.265Z,11.63
2023-04-02T09:07:44.591Z,12.00
2023-04-02T09:10:16.624Z,11.90
2023-04-02T09:12:49.336Z,11.07
2023-04-02T09:15:34.152Z,12.70
2023-04-02T09:18:14.955Z,13.93
2023-04-02T09:20:43.460Z,11.27
2023-04-02T09:23:16.698Z,12.13
2023-04-02T09:25:57.329Z,11.60
2023-04-02T09:28:29.635Z,11.27
2023-04-02T09:31:04.397Z,11.13
2023-04-02T09:33:50.175Z,11.27
2023-04-02T09:36:33.333Z,11.30
2023-04-02T09:39:06.790Z,11.53
2023-04-02T09:41:37.445Z,10.90
2023-04-02T09:44:30.474Z,10.33
2023-04-02T09:47:03.561Z,10.27
2023-04-02T09:49:35.512Z,9.63
2023-04-02T09:52:29.113Z,9.87
2023-04-02T09:55:18.922Z,10.27
2023-04-02T09:57:49.088Z,9.13
2023-04-02T10:00:31.263Z,9.73
2023-04-02T10:03:04.232Z,9.80
2023-04-02T10:08:10.180Z,9.63
2023-04-02T10:10:41.913Z,9.07
2023-04-02T10:13:19.785Z,9.90
2023-04-02T10:15:54.628Z,10.07
2023-04-02T10:18:32.632Z,10.27
2023-04-02T10:21:04.463Z,8.70
2023-04-02T10:23:34.110Z,8.33
2023-04-02T10:26:20.377Z,8.90
2023-04-02T10:29:06.749Z,8.93
2023-04-02T10:31:45.315Z,8.57
2023-04-02T10:34:21.752Z,9.53
2023-04-02T10:36:54.969Z,8.37
2023-04-02T10:39:27.388Z,9.17
2023-04-02T10:42:02.072Z,8.63
2023-04-02T10:44:41.917Z,8.93
2023-04-02T10:47:22.424Z,8.63
2023-04-02T10:50:01.693Z,8.17
2023-04-02T10:52:38.272Z,7.87
2023-04-02T10:55:14.526Z,9.17
2023-04-02T10:57:44.328Z,8.57
2023-04-02T11:00:21.224Z,9.10
2023-04-02T11:02:54.773Z,9.70
2023-04-02T11:05:30.391Z,9.03
2023-04-02T11:08:04.781Z,7.97
2023-04-02T11:10:36.823Z,7.03
2023-04-02T11:13:10.423Z,7.40
2023-04-02T11:15:39.591Z,7.40
2023-04-02T11:18:12.594Z,8.57
2023-04-02T11:21:06.101Z,7.73
2023-04-02T11:23:39.725Z,7.80
2023-04-02T11:26:38.403Z,8.30
2023-04-02T11:29:14.998Z,7.67
2023-04-02T11:31:44.436Z,6.67
2023-04-02T11:34:15.449Z,7.87
2023-04-02T11:37:04.564Z,7.90
2023-04-02T11:39:57.198Z,7.73
2023-04-02T11:42:31.116Z,6.30
2023-04-02T11:45:53.473Z,6.87
2023-04-02T11:48:30.534Z,5.87
2023-04-02T11:50:59.376Z,5.53
2023-04-02T11:53:32.119Z,6.00
2023-04-02T11:56:11.426Z,5.90
2023-04-02T11:58:53.010Z,6.20
2023-04-02T12:02:06.342Z,5.90
2023-04-02T12:05:03.517Z,5.80
2023-04-02T12:07:52.463Z,5.57
2023-04-02T12:10:22.441Z,5.30
2023-04-02T12:12:52.626Z,6.37
2023-04-02T12:15:35.799Z,6.23
2023-04-02T12:18:07.593Z,7.17
2023-04-02T12:20:36.347Z,7.87
2023-04-02T12:23:05.437Z,7.23
2023-04-02T12:25:40.209Z,6.27
2023-04-02T12:28:19.746Z,5.93
2023-04-02T12:30:49.260Z,6.70
2023-04-02T12:33:27.239Z,7.20
2023-04-02T12:35:58.929Z,7.60
2023-04-02T12:38:28.851Z,7.70
2023-04-02T12:40:59.807Z,9.13
2023-04-02T12:43:31.373Z,8.10
2023-04-02T12:46:01.129Z,8.17
2023-04-02T12:48:30.901Z,8.30
2023-04-02T12:50:59.990Z,8.37
2023-04-02T12:53:35.654Z,7.20
2023-04-02T12:56:04.969Z,7.07
2023-04-02T12:58:37.742Z,7.70
2023-04-02T13:01:15.087Z,7.20
2023-04-02T13:03:43.983Z,7.10
2023-04-02T13:06:26.565Z,7.97
2023-04-02T13:08:55.700Z,8.20
2023-04-02T13:11:24.433Z,9.40
2023-04-02T13:13:54.168Z,10.40
2023-04-02T13:16:35.715Z,9.20
2023-04-02T13:19:19.786Z,9.77
2023-04-02T13:21:48.251Z,8.40
2023-04-02T13:24:20.790Z,8.97
2023-04-02T13:26:50.149Z,9.10
2023-04-02T13:29:25.676Z,9.03
2023-04-02T13:31:55.994Z,8.77
2023-04-02T13:34:24.525Z,9.30
2023-04-02T13:36:53.003Z,9.03
2023-04-02T13:39:21.582Z,8.97
2023-04-02T13:41:52.092Z,8.73
2023-04-02T13:44:24.778Z,7.97
2023-04-02T13:46:54.727Z,8.70
2023-04-02T13:49:23.959Z,9.20
2023-04-02T13:51:54.025Z,8.70
2023-04-02T13:54:25.799Z,10.37
2023-04-02T13:56:55.991Z,9.00
2023-04-02T13:59:26.150Z,8.83
2023-04-02T14:01:58.625Z,7.33
2023-04-02T14:04:30.051Z,8.40
2023-04-02T14:07:26.094Z,8.77
2023-04-02T14:10:06.766Z,7.77
2023-04-02T14:12:47.307Z,8.17
2023-04-02T14:15:32.512Z,9.33
2023-04-02T14:18:19.956Z,7.90
2023-04-02T14:20:57.089Z,6.23
2023-04-02T14:24:00.450Z,6.87
2023-04-02T14:26:39.789Z,5.50
2023-04-02T14:29:16.836Z,5.93
2023-04-02T14:31:52.603Z,5.53
2023-04-02T14:34:30.971Z,5.33
2023-04-02T14:37:13.158Z,5.27
2023-04-02T14:39:50.677Z,5.20
2023-04-02T14:42:23.089Z,5.60
2023-04-02T14:44:58.420Z,4.87
2023-04-02T14:47:34.789Z,4.70
2023-04-02T14:50:11.538Z,4.67
2023-04-02T14:52:43.290Z,4.67
2023-04-02T14:55:20.484Z,5.03
2023-04-02T14:57:52.551Z,5.17
2023-04-02T15:00:30.009Z,6.53
2023-04-02T15:03:07.058Z,4.97
2023-04-02T15:05:42.377Z,4.50
2023-04-02T15:08:20.431Z,4.77
2023-04-02T15:11:00.960Z,4.73
2023-04-02T15:13:37.351Z,4.93
2023-04-02T15:16:12.538Z,4.70
2023-04-02T15:18:42.201Z,4.63
2023-04-02T15:21:29.421Z,3.57
2023-04-02T15:24:03.914Z,3.77
2023-04-02T15:26:39.323Z,4.80
2023-04-02T15:29:28.690Z,4.37
2023-04-02T15:32:03.110Z,5.27
2023-04-02T15:34:37.066Z,4.70
2023-04-02T15:37:12.739Z,4.60
2023-04-02T15:40:00.189Z,3.90
2023-04-02T15:42:30.675Z,3.47
2023-04-02T15:45:23.388Z,3.10
2023-04-02T15:48:03.429Z,2.77
2023-04-02T15:50:45.063Z,4.03
2023-04-02T15:53:31.874Z,3.80
2023-04-02T15:56:15.221Z,3.17
2023-04-02T15:59:15.994Z,3.53
2023-04-02T16:01:55.126Z,3.23
2023-04-02T16:04:38.054Z,3.00
2023-04-02T16:07:25.235Z,3.30
2023-04-02T16:10:06.044Z,3.20
2023-04-02T16:12:38.380Z,4.33
2023-04-02T16:15:15.585Z,4.53
2023-04-02T16:17:47.509Z,4.13
2023-04-02T16:20:21.814Z,4.17
2023-04-02T16:23:00.476Z,4.57
2023-04-02T16:25:35.766Z,3.70
2023-04-02T16:28:16.211Z,3.90
2023-04-02T16:30:55.747Z,3.80
2023-04-02T16:33:43.519Z,4.00
2023-04-02T16:36:27.992Z,4.00
2023-04-02T16:39:04.511Z,3.67
2023-04-02T16:41:43.951Z,3.57
2023-04-02T16:44:24.745Z,4.23
2023-04-02T16:47:03.282Z,4.00
2023-04-02T16:49:37.762Z,4.87
2023-04-02T16:52:21.441Z,4.00
2023-04-02T16:55:11.913Z,3.80
2023-04-02T16:57:50.221Z,4.10
2023-04-02T17:00:24.727Z,4.33
2023-04-02T17:03:07.169Z,4.70
2023-04-02T17:05:46.269Z,4.50
2023-04-02T17:08:22.430Z,4.87
2023-04-02T17:10:57.449Z,4.87
2023-04-02T17:13:29.986Z,4.67
2023-04-02T17:16:05.811Z,4.33
2023-04-02T17:18:34.636Z,5.10
2023-04-02T17:21:06.600Z,4.50
2023-04-02T17:23:55.318Z,5.50
2023-04-02T17:26:28.913Z,5.43
2023-04-02T17:28:59.644Z,6.47
2023-04-02T17:31:34.228Z,5.40
2023-04-02T17:34:10.948Z,5.77
2023-04-02T17:36:45.298Z,5.57
2023-04-02T17:39:21.958Z,5.43
2023-04-02T17:41:58.697Z,5.87
2023-04-02T17:44:44.762Z,5.50
2023-04-02T17:47:18.861Z,5.33
2023-04-02T17:49:58.687Z,5.20
2023-04-02T17:52:35.674Z,6.50
2023-04-02T17:55:13.692Z,5.73
2023-04-02T17:57:55.070Z,5.77
2023-04-02T18:00:45.666Z,6.13
2023-04-02T18:03:52.125Z,6.83
2023-04-02T18:06:23.121Z,5.73
2023-04-02T18:09:08.700Z,5.80
2023-04-02T18:11:48.851Z,5.57
2023-04-02T18:14:36.389Z,5.83
2023-04-02T18:17:11.726Z,5.90
2023-04-02T18:19:50.668Z,5.80
2023-04-02T18:22:27.500Z,6.00
2023-04-02T18:25:19.579Z,6.17
2023-04-02T18:28:04.358Z,6.97
2023-04-02T18:30:40.444Z,7.30
2023-04-02T18:33:34.394Z,7.03
2023-04-02T18:36:11.095Z,7.40
2023-04-02T18:38:45.320Z,6.77
2023-04-02T18:41:29.413Z,7.00
2023-04-02T18:44:15.246Z,6.57
2023-04-02T18:46:50.770Z,6.23
2023-04-02T18:49:29.109Z,6.77
2023-04-02T18:52:01.853Z,7.40
2023-04-02T18:54:34.022Z,6.70
2023-04-02T18:57:03.923Z,7.40
2023-04-02T18:59:39.096Z,7.20
2023-04-02T19:02:27.365Z,7.50
2023-04-02T19:05:02.289Z,7.20
2023-04-02T19:07:34.339Z,7.60
2023-04-02T19:10:09.835Z,7.30
2023-04-02T19:12:38.160Z,7.17
2023-04-02T19:15:17.504Z,8.17
2023-04-02T19:17:49.505Z,8.30
2023-04-02T19:20:29.934Z,8.33
2023-04-02T19:23:05.035Z,7.67
2023-04-02T19:25:54.332Z,7.93
2023-04-02T19:28:29.437Z,8.13
2023-04-02T19:31:09.583Z,8.70
2023-04-02T19:33:50.383Z,8.20
2023-04-02T19:36:36.673Z,8.83
2023-04-02T19:39:30.126Z,9.60
2023-04-02T19:42:07.706Z,9.03
2023-04-02T19:44:36.541Z,8.90
2023-04-02T19:47:05.145Z,8.57
2023-04-02T19:49:36.272Z,9.73
2023-04-02T19:52:04.710Z,10.07
2023-04-02T19:54:33.005Z,10.20
2023-04-02T19:57:03.103Z,11.03
2023-04-02T19:59:32.276Z,9.97
2023-04-02T20:02:04.252Z,10.03
2023-04-02T20:04:34.014Z,10.57
2023-04-02T20:07:02.462Z,10.90
2023-04-02T20:09:30.845Z,11.73
2023-04-02T20:11:59.228Z,11.37
2023-04-02T20:14:27.506Z,9.97
2023-04-02T20:16:55.874Z,10.53
2023-04-02T20:19:24.180Z,9.67
2023-04-02T20:21:53.851Z,10.00
2023-04-02T20:24:22.246Z,9.63
2023-04-02T20:26:50.707Z,10.63
2023-04-02T20:29:18.993Z,10.53
2023-04-02T20:31:47.371Z,10.87
2023-04-02T20:34:15.892Z,11.07
2023-04-02T20:36:45.573Z,10.50
2023-04-02T20:39:19.360Z,10.70
2023-04-02T20:41:48.010Z,10.70
2023-04-02T20:44:16.440Z,10.80
2023-04-02T20:46:44.778Z,10.17
2023-04-02T20:49:13.344Z,10.87
2023-04-02T20:51:41.658Z,10.43
2023-04-02T20:54:10.007Z,11.30
2023-04-02T20:56:39.860Z,8.80
2023-04-02T20:59:08.125Z,9.20
2023-04-02T21:01:36.409Z,8.87
2023-04-02T21:04:05.352Z,8.83
2023-04-02T21:06:36.283Z,7.27
2023-04-02T21:09:08.462Z,7.63
2023-04-02T21:11:37.990Z,6.87
2023-04-02T21:14:07.978Z,7.13
2023-04-02T21:16:36.456Z,7.73
2023-04-02T21:19:07.137Z,7.60
2023-04-02T21:21:35.878Z,8.13
2023-04-02T21:24:06.358Z,7.40
2023-04-02T21:26:36.944Z,7.87
2023-04-02T21:29:07.514Z,7.10
2023-04-02T21:31:37.881Z,6.33
2023-04-02T21:34:07.137Z,6.63
2023-04-02T21:36:37.215Z,6.23
2023-04-02T21:39:07.570Z,6.30
2023-04-02T21:41:37.077Z,5.33
2023-04-02T21:44:08.658Z,5.47
2023-04-02T21:46:39.572Z,5.83
2023-04-02T21:49:08.948Z,5.90
2023-04-02T21:51:39.224Z,6.27
2023-04-02T21:54:08.044Z,5.37
2023-04-02T21:56:38.446Z,5.70
2023-04-02T21:59:09.820Z,5.30
2023-04-02T22:01:40.478Z,5.67
2023-04-02T22:04:10.029Z,5.50
2023-04-02T22:06:39.915Z,5.47
2023-04-02T22:09:10.541Z,5.03
2023-04-02T22:11:41.515Z,5.17
2023-04-02T22:14:11.824Z,5.67
2023-04-02T22:16:40.601Z,6.03
2023-04-02T22:19:10.837Z,6.03
2023-04-02T22:21:39.629Z,5.30
2023-04-02T22:24:10.405Z,5.33
2023-04-02T22:26:40.497Z,5.50
2023-04-02T22:29:09.294Z,5.57
2023-04-02T22:31:39.353Z,5.10
2023-04-02T22:34:08.257Z,6.00
2023-04-02T22:36:37.075Z,5.67
2023-04-02T22:39:07.067Z,5.90
2023-04-02T22:41:35.596Z,5.60
2023-04-02T22:44:04.064Z,6.70
2023-04-02T22:46:32.754Z,6.87
2023-04-02T22:49:02.490Z,6.50
2023-04-02T22:51:31.092Z,7.53
2023-04-02T22:53:59.418Z,6.90
2023-04-02T22:56:32.127Z,6.43
2023-04-02T22:59:00.857Z,7.20
2023-04-02T23:01:31.963Z,6.40
2023-04-02T23:04:00.602Z,7.10
2023-04-02T23:06:30.408Z,6.70
2023-04-02T23:08:58.942Z,6.80
2023-04-02T23:11:28.543Z,7.00
2023-04-02T23:13:58.734Z,7.87
2023-04-02T23:16:28.542Z,6.33
2023-04-02T23:18:57.852Z,7.73
2023-04-02T23:21:26.996Z,7.07
2023-04-02T23:23:56.649Z,7.03
2023-04-02T23:26:29.144Z,7.03
2023-04-02T23:28:58.208Z,6.87
2023-04-02T23:31:27.093Z,7.23
2023-04-02T23:33:55.841Z,7.40
2023-04-02T23:36:26.397Z,6.53
2023-04-02T23:38:57.251Z,7.40
2023-04-02T23:41:27.096Z,6.90
2023-04-02T23:43:56.029Z,7.70
2023-04-02T23:46:25.305Z,5.57
2023-04-02T23:48:54.063Z,6.77
2023-04-02T23:51:23.462Z,6.90
2023-04-02T23:53:52.804Z,6.87
2023-04-02T23:56:23.469Z,7.00
2023-04-02T23:58:52.083Z,7.27
